Time;durP1;ratioP1;P1;durP2;ratioP2;P2;SDS_P1;SDS_P2;PMS_P1;PMS_P2;Temp;Humidity;BMP_temperature;BMP_pressure;BME280_temperature;BME280_humidity;BME280_pressure;Samples;Min_cycle;Max_cycle;Signal;HPM_P1;HPM_P2
2021/01/08 00:00:09;;;;;;;;;;;;;;;;;;5092987;28;19908;-78
2021/01/08 00:02:35;;;;;;;;;;;;;;;;;;5092578;28;19904;-79
2021/01/08 00:05:01;;;;;;;;;;;;;;;;;;5092990;28;19904;-76
2021/01/08 00:07:27;;;;;;;;;;;;;;;;;;5092850;28;19904;-78
2021/01/08 00:09:53;;;;;;;;;;;;;;;;;;5092385;28;19915;-78
2021/01/08 00:12:18;;;;;;;;;;;;;;;;;;5092781;28;19904;-80
2021/01/08 00:14:44;;;;;;;;;;;;;;;;;;5092493;28;19985;-77
2021/01/08 00:17:10;;;;;;;;;;;;;;;;;;5092671;28;19916;-77
2021/01/08 00:19:36;;;;;;;;;;;;;;;;;;5092538;28;19904;-78
2021/01/08 00:22:02;;;;;;;;;;;;;;;;;;5092693;28;20007;-79
2021/01/08 00:24:28;;;;;;;;;;;;;;;;;;5092751;28;20351;-78
2021/01/08 00:26:59;;;;;;;;;;;;;;;;;;5092388;28;20354;-77
2021/01/08 00:29:25;;;;;;;;;;;;;;;;;;5092732;28;19958;-79
2021/01/08 00:31:51;;;;;;;;;;;;;;;;;;5092242;28;20375;-79
2021/01/08 00:34:17;;;;;;;;;;;;;;;;;;5092625;28;20351;-79
2021/01/08 00:36:43;;;;;;;;;;;;;;;;;;5092339;28;20428;-80
2021/01/08 00:39:09;;;;;;;;;;;;;;;;;;5092549;28;19911;-78
2021/01/08 00:41:35;;;;;;;;;;;;;;;;;;5092525;28;19903;-77
2021/01/08 00:44:01;;;;;;;;;;;;;;;;;;5092333;28;19907;-78
2021/01/08 00:46:27;;;;;;;;;;;;;;;;;;5092515;28;19995;-77
2021/01/08 00:48:52;;;;;;;;;;;;;;;;;;5092235;28;19926;-78
2021/01/08 00:51:18;;;;;;;;;;;;;;;;;;5092471;28;20005;-77
2021/01/08 00:53:44;;;;;;;;;;;;;;;;;;5092262;28;19911;-79
2021/01/08 00:56:10;;;;;;;;;;;;;;;;;;5092294;28;19919;-79
2021/01/08 00:58:36;;;;;;;;;;;;;;;;;;5095308;28;20410;-79
2021/01/08 01:01:02;;;;;;;;;;;;;;;;;;5095890;28;20363;-78
2021/01/08 01:03:28;;;;;;;;;;;;;;;;;;5096092;28;20275;-79
2021/01/08 01:05:54;;;;;;;;;;;;;;;;;;5095861;28;20315;-79
2021/01/08 01:08:20;;;;;;;;;;;;;;;;;;5096136;28;20305;-79
2021/01/08 01:10:46;;;;;;;;;;;;;;;;;;5095842;28;19916;-79
2021/01/08 01:13:12;;;;;;;;;;;;;;;;;;5095879;28;19911;-76
2021/01/08 01:15:38;;;;;;;;;;;;;;;;;;5095792;28;19908;-80
2021/01/08 01:18:04;;;;;;;;;;;;;;;;;;5095650;28;19958;-78
2021/01/08 01:20:30;;;;;;;;;;;;;;;;;;5095874;28;19991;-78
2021/01/08 01:22:55;;;;;;;;;;;;;;;;;;5095973;28;19915;-78
2021/01/08 01:25:21;;;;;;;;;;;;;;;;;;5095697;28;19915;-79
2021/01/08 01:27:47;;;;;;;;;;;;;;;;;;5095733;28;19908;-77
2021/01/08 01:30:13;;;;;;;;;;;;;;;;;;5095542;28;19943;-80
2021/01/08 01:32:39;;;;;;;;;;;;;;;;;;5095608;28;19911;-77
2021/01/08 01:35:05;;;;;;;;;;;;;;;;;;5095388;28;19904;-79
2021/01/08 01:37:31;;;;;;;;;;;;;;;;;;5095537;28;20278;-77
2021/01/08 01:39:57;;;;;;;;;;;;;;;;;;5095527;28;19904;-80
2021/01/08 01:42:23;;;;;;;;;;;;;;;;;;5095220;28;19904;-79
2021/01/08 01:44:49;;;;;;;;;;;;;;;;;;5095300;28;19950;-78
2021/01/08 01:47:15;;;;;;;;;;;;;;;;;;5095266;28;20350;-80
2021/01/08 01:49:41;;;;;;;;;;;;;;;;;;5095118;28;20363;-77
2021/01/08 01:52:07;;;;;;;;;;;;;;;;;;5095320;28;20329;-78
2021/01/08 01:54:33;;;;;;;;;;;;;;;;;;5094975;28;19904;-78
2021/01/08 01:56:59;;;;;;;;;;;;;;;;;;5095030;28;19981;-79
2021/01/08 01:59:25;;;;;;;;;;;;;;;;;;5094734;28;19904;-81
2021/01/08 02:01:50;;;;;;;;;;;;;;;;;;5095070;28;19911;-78
2021/01/08 02:04:16;;;;;;;;;;;;;;;;;;5094950;28;19910;-77
2021/01/08 02:06:42;;;;;;;;;;;;;;;;;;5094846;28;19935;-79
2021/01/08 02:09:08;;;;;;;;;;;;;;;;;;5094416;28;19916;-80
2021/01/08 02:11:34;;;;;;;;;;;;;;;;;;5094659;28;19961;-78
2021/01/08 02:14:00;;;;;;;;;;;;;;;;;;5094819;28;19931;-78
2021/01/08 02:16:26;;;;;;;;;;;;;;;;;;5093257;28;19911;-77
2021/01/08 02:18:52;;;;;;;;;;;;;;;;;;5094675;28;19910;-77
2021/01/08 02:21:18;;;;;;;;;;;;;;;;;;5093317;28;19908;-80
2021/01/08 02:23:44;;;;;;;;;;;;;;;;;;5094396;28;20367;-79
2021/01/08 02:26:10;;;;;;;;;;;;;;;;;;5094591;28;19936;-79
2021/01/08 02:28:36;;;;;;;;;;;;;;;;;;5094245;28;19950;-77
2021/01/08 02:31:02;;;;;;;;;;;;;;;;;;5094437;28;19904;-78
2021/01/08 02:33:28;;;;;;;;;;;;;;;;;;5094233;28;19911;-79
2021/01/08 02:35:54;;;;;;;;;;;;;;;;;;5092965;28;19916;-78
2021/01/08 02:38:20;;;;;;;;;;;;;;;;;;5094384;28;20326;-78
2021/01/08 02:40:46;;;;;;;;;;;;;;;;;;5094040;28;20274;-79
2021/01/08 02:43:12;;;;;;;;;;;;;;;;;;5094380;28;19908;-78
2021/01/08 02:45:38;;;;;;;;;;;;;;;;;;5093914;28;19958;-77
2021/01/08 02:48:04;;;;;;;;;;;;;;;;;;5094061;28;19908;-80
2021/01/08 02:50:30;;;;;;;;;;;;;;;;;;5094128;28;19930;-78
2021/01/08 02:52:56;;;;;;;;;;;;;;;;;;5093788;28;19950;-80
2021/01/08 02:55:21;;;;;;;;;;;;;;;;;;5094162;28;19911;-79
2021/01/08 02:57:47;;;;;;;;;;;;;;;;;;5093790;28;20009;-77
2021/01/08 03:00:13;;;;;;;;;;;;;;;;;;5093952;28;19911;-77
2021/01/08 03:02:39;;;;;;;;;;;;;;;;;;5093672;28;20011;-78
2021/01/08 03:05:05;;;;;;;;;;;;;;;;;;5093603;28;19908;-78
2021/01/08 03:07:31;;;;;;;;;;;;;;;;;;5093730;28;19908;-77
2021/01/08 03:09:57;;;;;;;;;;;;;;;;;;5093201;28;19922;-80
2021/01/08 03:12:23;;;;;;;;;;;;;;;;;;5093668;28;19915;-78
2021/01/08 03:14:49;;;;;;;;;;;;;;;;;;5093404;28;19904;-79
2021/01/08 03:17:15;;;;;;;;;;;;;;;;;;5093589;28;19965;-79
2021/01/08 03:19:41;;;;;;;;;;;;;;;;;;5092944;28;19904;-77
2021/01/08 03:22:07;;;;;;;;;;;;;;;;;;5093159;28;19908;-78
2021/01/08 03:24:33;;;;;;;;;;;;;;;;;;5093570;28;19931;-78
2021/01/08 03:26:59;;;;;;;;;;;;;;;;;;5093197;28;19904;-77
2021/01/08 03:29:24;;;;;;;;;;;;;;;;;;5093294;28;19992;-80
2021/01/08 03:31:50;;;;;;;;;;;;;;;;;;5093283;28;19926;-79
2021/01/08 03:34:16;;;;;;;;;;;;;;;;;;5093148;28;19904;-77
2021/01/08 03:36:42;;;;;;;;;;;;;;;;;;5093158;28;19952;-78
2021/01/08 03:39:08;;;;;;;;;;;;;;;;;;5093012;28;20340;-80
2021/01/08 03:41:34;;;;;;;;;;;;;;;;;;5093246;28;20437;-78
2021/01/08 03:44:00;;;;;;;;;;;;;;;;;;5092950;28;20309;-77
2021/01/08 03:46:26;;;;;;;;;;;;;;;;;;5093150;28;20317;-77
2021/01/08 03:48:52;;;;;;;;;;;;;;;;;;5092981;28;20327;-80
2021/01/08 03:51:18;;;;;;;;;;;;;;;;;;5092970;28;19904;-78
2021/01/08 03:53:44;;;;;;;;;;;;;;;;;;5093115;28;19953;-78
2021/01/08 03:56:10;;;;;;;;;;;;;;;;;;5092657;28;19955;-77
2021/01/08 03:58:36;;;;;;;;;;;;;;;;;;5092849;28;19915;-78
2021/01/08 04:01:02;;;;;;;;;;;;;;;;;;5092768;28;19904;-78
2021/01/08 04:03:27;;;;;;;;;;;;;;;;;;5092781;28;19950;-77
2021/01/08 04:05:53;;;;;;;;;;;;;;;;;;5091557;28;19908;-76
2021/01/08 04:08:19;;;;;;;;;;;;;;;;;;5092605;28;19910;-77
2021/01/08 04:10:45;;;;;;;;;;;;;;;;;;5092732;28;19979;-78
2021/01/08 04:13:11;;;;;;;;;;;;;;;;;;5092467;28;19910;-77
2021/01/08 04:15:37;;;;;;;;;;;;;;;;;;5092751;28;19920;-76
2021/01/08 04:18:03;;;;;;;;;;;;;;;;;;5092666;28;19908;-79
2021/01/08 04:20:29;;;;;;;;;;;;;;;;;;5092560;28;19955;-78
2021/01/08 04:22:55;;;;;;;;;;;;;;;;;;5092615;28;19912;-78
2021/01/08 04:25:21;;;;;;;;;;;;;;;;;;5092492;28;19908;-79
2021/01/08 04:27:47;;;;;;;;;;;;;;;;;;5092579;28;19904;-77
2021/01/08 04:30:13;;;;;;;;;;;;;;;;;;5092448;28;19908;-76
2021/01/08 04:32:39;;;;;;;;;;;;;;;;;;5095927;28;20313;-78
2021/01/08 04:35:05;;;;;;;;;;;;;;;;;;5096586;28;19940;-77
2021/01/08 04:37:31;;;;;;;;;;;;;;;;;;5096462;28;19919;-78
2021/01/08 04:39:57;;;;;;;;;;;;;;;;;;5096534;28;19904;-77
2021/01/08 04:42:22;;;;;;;;;;;;;;;;;;5096523;28;19904;-77
2021/01/08 04:44:48;;;;;;;;;;;;;;;;;;5096487;28;19904;-77
2021/01/08 04:47:14;;;;;;;;;;;;;;;;;;5096490;28;20086;-76
2021/01/08 04:49:40;;;;;;;;;;;;;;;;;;5096219;28;19904;-76
2021/01/08 04:52:06;;;;;;;;;;;;;;;;;;5096384;28;19962;-76
2021/01/08 04:54:32;;;;;;;;;;;;;;;;;;5096199;28;19911;-78
2021/01/08 04:56:58;;;;;;;;;;;;;;;;;;5096127;28;19955;-76
2021/01/08 04:59:25;;;;;;;;;;;;;;;;;;5096317;28;19904;-79
2021/01/08 05:01:51;;;;;;;;;;;;;;;;;;5096092;28;19904;-77
2021/01/08 05:04:17;;;;;;;;;;;;;;;;;;5096146;28;19904;-77
2021/01/08 05:06:43;;;;;;;;;;;;;;;;;;5095838;28;19904;-77
2021/01/08 05:09:09;;;;;;;;;;;;;;;;;;5095851;28;19973;-79
2021/01/08 05:11:35;;;;;;;;;;;;;;;;;;5095791;28;19904;-77
2021/01/08 05:14:01;;;;;;;;;;;;;;;;;;5096019;28;19904;-77
2021/01/08 05:16:27;;;;;;;;;;;;;;;;;;5095943;28;19919;-78
2021/01/08 05:18:53;;;;;;;;;;;;;;;;;;5095636;28;19904;-77
2021/01/08 05:21:19;;;;;;;;;;;;;;;;;;5095689;28;19931;-78
2021/01/08 05:23:45;;;;;;;;;;;;;;;;;;5095367;28;19916;-78
2021/01/08 05:26:10;;;;;;;;;;;;;;;;;;5095678;28;19908;-81
2021/01/08 05:28:36;;;;;;;;;;;;;;;;;;5095557;28;19958;-80
2021/01/08 05:31:02;;;;;;;;;;;;;;;;;;5095518;28;19912;-77
2021/01/08 05:33:28;;;;;;;;;;;;;;;;;;5095567;28;19970;-81
2021/01/08 05:35:54;;;;;;;;;;;;;;;;;;5095280;28;20343;-77
2021/01/08 05:38:21;;;;;;;;;;;;;;;;;;5095614;28;20021;-78
2021/01/08 05:40:47;;;;;;;;;;;;;;;;;;5095023;28;20240;-78
2021/01/08 05:43:13;;;;;;;;;;;;;;;;;;5094674;28;19908;-78
2021/01/08 05:45:39;;;;;;;;;;;;;;;;;;5095315;28;20290;-78
2021/01/08 05:48:05;;;;;;;;;;;;;;;;;;5095020;28;19965;-79
2021/01/08 05:50:31;;;;;;;;;;;;;;;;;;5095346;28;19958;-77
2021/01/08 05:52:57;;;;;;;;;;;;;;;;;;5094957;28;19911;-79
2021/01/08 05:55:23;;;;;;;;;;;;;;;;;;5095185;28;19908;-78
2021/01/08 05:57:50;;;;;;;;;;;;;;;;;;5095040;28;20374;-78
2021/01/08 06:00:16;;;;;;;;;;;;;;;;;;5094840;28;19904;-79
2021/01/08 06:02:42;;;;;;;;;;;;;;;;;;5095079;28;20351;-75
2021/01/08 06:05:08;;;;;;;;;;;;;;;;;;5094415;28;20262;-75
2021/01/08 06:07:34;;;;;;;;;;;;;;;;;;5094885;28;19958;-76
2021/01/08 06:10:00;;;;;;;;;;;;;;;;;;5094171;28;20307;-79
2021/01/08 06:12:26;;;;;;;;;;;;;;;;;;5094743;28;19904;-75
2021/01/08 06:14:52;;;;;;;;;;;;;;;;;;5094494;28;19939;-76
2021/01/08 06:17:18;;;;;;;;;;;;;;;;;;5094133;28;19967;-77
2021/01/08 06:19:44;;;;;;;;;;;;;;;;;;5093165;28;19915;-77
2021/01/08 06:22:10;;;;;;;;;;;;;;;;;;5094011;28;19914;-78
2021/01/08 06:24:36;;;;;;;;;;;;;;;;;;5094279;28;19908;-77
2021/01/08 06:27:02;;;;;;;;;;;;;;;;;;5094276;28;19908;-75
2021/01/08 06:29:28;;;;;;;;;;;;;;;;;;5091584;28;19912;-75
2021/01/08 06:31:54;;;;;;;;;;;;;;;;;;5083095;28;19908;-78
2021/01/08 06:34:20;;;;;;;;;;;;;;;;;;5073318;28;19919;-76
2021/01/08 06:36:46;;;;;;;;;;;;;;;;;;5089016;28;19912;-79
2021/01/08 06:39:12;;;;;;;;;;;;;;;;;;5093644;28;19956;-76
2021/01/08 06:41:38;;;;;;;;;;;;;;;;;;5092894;28;19951;-74
2021/01/08 06:44:04;;;;;;;;;;;;;;;;;;5089943;28;19912;-75
2021/01/08 06:46:30;;;;;;;;;;;;;;;;;;5081278;28;19905;-76
2021/01/08 06:48:56;;;;;;;;;;;;;;;;;;5082297;28;19930;-76
2021/01/08 06:51:22;;;;;;;;;;;;;;;;;;5075350;28;19908;-77
2021/01/08 06:53:48;;;;;;;;;;;;;;;;;;5073281;28;19975;-76
2021/01/08 06:56:14;;;;;;;;;;;;;;;;;;5072180;28;20310;-77
2021/01/08 06:58:40;;;;;;;;;;;;;;;;;;5090026;28;19974;-76
2021/01/08 07:01:05;;;;;;;;;;;;;;;;;;5093209;28;20316;-76
2021/01/08 07:03:31;;;;;;;;;;;;;;;;;;5093527;28;19904;-76
2021/01/08 07:05:57;;;;;;;;;;;;;;;;;;5093281;28;19904;-76
2021/01/08 07:08:23;;;;;;;;;;;;;;;;;;5093538;28;19957;-77
2021/01/08 07:10:49;;;;;;;;;;;;;;;;;;5080587;28;19917;-76
2021/01/08 07:13:18;;;;;;;;;;;;;;;;;;5072383;28;19908;-78
2021/01/08 07:15:44;;;;;;;;;;;;;;;;;;5072498;28;19915;-79
2021/01/08 07:18:10;;;;;;;;;;;;;;;;;;5073188;28;20359;-79
2021/01/08 07:20:36;;;;;;;;;;;;;;;;;;5073340;28;20282;-80
2021/01/08 07:23:02;;;;;;;;;;;;;;;;;;5072743;28;19955;-80
2021/01/08 07:25:28;;;;;;;;;;;;;;;;;;5073022;28;19958;-78
2021/01/08 07:27:53;;;;;;;;;;;;;;;;;;5073278;28;19909;-79
2021/01/08 07:30:19;;;;;;;;;;;;;;;;;;5072468;28;19947;-79
2021/01/08 07:32:45;;;;;;;;;;;;;;;;;;5073001;28;19930;-79
2021/01/08 07:35:11;;;;;;;;;;;;;;;;;;5072885;28;19900;-79
2021/01/08 07:37:37;;;;;;;;;;;;;;;;;;5072690;28;20332;-79
2021/01/08 07:40:03;;;;;;;;;;;;;;;;;;5072770;28;20317;-79
2021/01/08 07:42:29;;;;;;;;;;;;;;;;;;5072484;28;19952;-78
2021/01/08 07:44:55;;;;;;;;;;;;;;;;;;5072245;28;19905;-79
2021/01/08 07:47:21;;;;;;;;;;;;;;;;;;5072458;28;19961;-78
2021/01/08 07:49:47;;;;;;;;;;;;;;;;;;5085240;28;19908;-77
2021/01/08 07:52:13;;;;;;;;;;;;;;;;;;5081297;28;19908;-77
2021/01/08 07:54:39;;;;;;;;;;;;;;;;;;5098437;28;20005;-78
2021/01/08 07:57:05;;;;;;;;;;;;;;;;;;5088685;28;19912;-78
2021/01/08 07:59:31;;;;;;;;;;;;;;;;;;5090751;28;20274;-79
2021/01/08 08:01:57;;;;;;;;;;;;;;;;;;5092979;28;19995;-78
2021/01/08 08:04:23;;;;;;;;;;;;;;;;;;5080794;28;20645;-78
2021/01/08 08:06:48;;;;;;;;;;;;;;;;;;5084049;28;19958;-78
2021/01/08 08:09:15;;;;;;;;;;;;;;;;;;5076660;28;19924;-78
2021/01/08 08:11:41;;;;;;;;;;;;;;;;;;5090020;28;19954;-79
2021/01/08 08:14:09;;;;;;;;;;;;;;;;;;5092433;28;19943;-78
2021/01/08 08:16:35;;;;;;;;;;;;;;;;;;5072542;28;19918;-77
2021/01/08 08:19:01;;;;;;;;;;;;;;;;;;5072591;28;19995;-78
2021/01/08 08:21:27;;;;;;;;;;;;;;;;;;5071711;28;19919;-78
2021/01/08 08:23:53;;;;;;;;;;;;;;;;;;5072621;28;19908;-78
2021/01/08 08:26:19;;;;;;;;;;;;;;;;;;5072157;28;20252;-78
2021/01/08 08:28:45;;;;;;;;;;;;;;;;;;5081963;28;20063;-79
2021/01/08 08:31:11;;;;;;;;;;;;;;;;;;5092426;28;19904;-78
2021/01/08 08:33:37;;;;;;;;;;;;;;;;;;5092423;28;19933;-77
2021/01/08 08:36:03;;;;;;;;;;;;;;;;;;5092232;28;19911;-78
2021/01/08 08:38:28;;;;;;;;;;;;;;;;;;5092300;28;20350;-77
2021/01/08 08:40:54;;;;;;;;;;;;;;;;;;5092615;28;20327;-77
2021/01/08 08:43:21;;;;;;;;;;;;;;;;;;5091976;28;19915;-78
2021/01/08 08:45:47;;;;;;;;;;;;;;;;;;5092108;28;19961;-78
2021/01/08 08:48:13;;;;;;;;;;;;;;;;;;5092427;28;19904;-78
2021/01/08 08:50:39;;;;;;;;;;;;;;;;;;5091980;28;19908;-79
2021/01/08 08:53:05;;;;;;;;;;;;;;;;;;5091673;28;19908;-72
2021/01/08 08:55:31;;;;;;;;;;;;;;;;;;5091573;28;19950;-78
2021/01/08 08:57:57;;;;;;;;;;;;;;;;;;5085597;28;20367;-78
2021/01/08 09:00:23;;;;;;;;;;;;;;;;;;5090424;28;19904;-78
2021/01/08 09:02:49;;;;;;;;;;;;;;;;;;5092465;28;19908;-78
2021/01/08 09:05:15;;;;;;;;;;;;;;;;;;5088962;28;19908;-80
2021/01/08 09:07:41;;;;;;;;;;;;;;;;;;5091659;28;19912;-78
2021/01/08 09:10:07;;;;;;;;;;;;;;;;;;5085116;28;19966;-78
2021/01/08 09:12:32;;;;;;;;;;;;;;;;;;5091747;28;20335;-77
2021/01/08 09:14:58;;;;;;;;;;;;;;;;;;5092150;28;20432;-81
2021/01/08 09:17:24;;;;;;;;;;;;;;;;;;5091895;28;20420;-78
2021/01/08 09:19:52;;;;;;;;;;;;;;;;;;5096147;28;20260;-79
2021/01/08 09:22:18;;;;;;;;;;;;;;;;;;5095520;28;20320;-78
2021/01/08 09:24:44;;;;;;;;;;;;;;;;;;5095455;28;20006;-78
2021/01/08 09:27:11;;;;;;;;;;;;;;;;;;5095360;28;19905;-78
2021/01/08 09:29:37;;;;;;;;;;;;;;;;;;5095456;28;20270;-77
2021/01/08 09:32:02;;;;;;;;;;;;;;;;;;5090470;28;20015;-77
2021/01/08 09:34:28;;;;;;;;;;;;;;;;;;5093266;28;20359;-77
2021/01/08 09:36:54;;;;;;;;;;;;;;;;;;5094820;28;20302;-76
2021/01/08 09:39:20;;;;;;;;;;;;;;;;;;5089313;28;20381;-77
2021/01/08 09:41:46;;;;;;;;;;;;;;;;;;5089949;28;20385;-77
2021/01/08 09:44:12;;;;;;;;;;;;;;;;;;5094805;28;19904;-77
2021/01/08 09:46:38;;;;;;;;;;;;;;;;;;5094674;28;19908;-76
2021/01/08 09:49:04;;;;;;;;;;;;;;;;;;5093549;28;19912;-77
2021/01/08 09:51:30;;;;;;;;;;;;;;;;;;5094825;28;19939;-77
2021/01/08 09:53:56;;;;;;;;;;;;;;;;;;5094993;28;19904;-77
2021/01/08 09:56:22;;;;;;;;;;;;;;;;;;5094805;28;20359;-81
2021/01/08 09:58:48;;;;;;;;;;;;;;;;;;5094706;28;19904;-78
2021/01/08 10:01:14;;;;;;;;;;;;;;;;;;5094851;28;19915;-78
2021/01/08 10:03:40;;;;;;;;;;;;;;;;;;5089763;28;20003;-78
2021/01/08 10:06:09;;;;;;;;;;;;;;;;;;5089260;28;19908;-79
2021/01/08 10:08:35;;;;;;;;;;;;;;;;;;5085395;28;19908;-80
2021/01/08 10:11:01;;;;;;;;;;;;;;;;;;5094534;28;19908;-78
2021/01/08 10:13:27;;;;;;;;;;;;;;;;;;5085299;28;20003;-77
2021/01/08 10:15:56;;;;;;;;;;;;;;;;;;5083829;28;19908;-77
2021/01/08 10:18:22;;;;;;;;;;;;;;;;;;5075630;28;19912;-78
2021/01/08 10:20:48;;;;;;;;;;;;;;;;;;5083474;28;20363;-77
2021/01/08 10:23:14;;;;;;;;;;;;;;;;;;5074025;28;20018;-78
2021/01/08 10:25:40;;;;;;;;;;;;;;;;;;5074269;28;20402;-77
2021/01/08 10:28:06;;;;;;;;;;;;;;;;;;5078351;28;19908;-78
2021/01/08 10:30:32;;;;;;;;;;;;;;;;;;5081875;28;19913;-79
2021/01/08 10:32:58;;;;;;;;;;;;;;;;;;5081252;28;19933;-77
2021/01/08 10:35:24;;;;;;;;;;;;;;;;;;5082247;28;19915;-77
2021/01/08 10:37:50;;;;;;;;;;;;;;;;;;5083675;28;19923;-77
2021/01/08 10:40:16;;;;;;;;;;;;;;;;;;5080400;28;19919;-77
2021/01/08 10:42:42;;;;;;;;;;;;;;;;;;5085426;28;19915;-78
2021/01/08 10:45:08;;;;;;;;;;;;;;;;;;5081707;28;20019;-78
2021/01/08 10:47:34;;;;;;;;;;;;;;;;;;5084761;28;20036;-77
2021/01/08 10:50:00;;;;;;;;;;;;;;;;;;5090625;28;19908;-77
2021/01/08 10:52:26;;;;;;;;;;;;;;;;;;5082223;28;19931;-78
2021/01/08 10:54:52;;;;;;;;;;;;;;;;;;5073648;28;20267;-78
2021/01/08 10:57:18;;;;;;;;;;;;;;;;;;5073339;28;19983;-78
2021/01/08 10:59:43;;;;;;;;;;;;;;;;;;5093123;28;20509;-77
2021/01/08 11:02:09;;;;;;;;;;;;;;;;;;5093204;28;20260;-78
2021/01/08 11:04:35;;;;;;;;;;;;;;;;;;5093721;28;20298;-79
2021/01/08 11:07:01;;;;;;;;;;;;;;;;;;5093581;28;20403;-80
2021/01/08 11:09:27;;;;;;;;;;;;;;;;;;5093095;28;20359;-78
2021/01/08 11:11:53;;;;;;;;;;;;;;;;;;5094969;28;19904;-79
2021/01/08 11:14:19;;;;;;;;;;;;;;;;;;5091508;28;19951;-78
2021/01/08 11:16:45;;;;;;;;;;;;;;;;;;5092890;28;19912;-79
2021/01/08 11:19:11;;;;;;;;;;;;;;;;;;5087856;28;19995;-78
2021/01/08 11:21:37;;;;;;;;;;;;;;;;;;5073091;28;19920;-80
2021/01/08 11:24:03;;;;;;;;;;;;;;;;;;5081545;28;19912;-79
2021/01/08 11:26:29;;;;;;;;;;;;;;;;;;5093254;28;19908;-80
2021/01/08 11:28:55;;;;;;;;;;;;;;;;;;5083377;28;20050;-79
2021/01/08 11:31:21;;;;;;;;;;;;;;;;;;5082131;28;20007;-78
2021/01/08 11:33:47;;;;;;;;;;;;;;;;;;5082087;28;19907;-79
2021/01/08 11:36:13;;;;;;;;;;;;;;;;;;5081674;28;19917;-78
2021/01/08 11:38:39;;;;;;;;;;;;;;;;;;5076905;28;19907;-79
2021/01/08 11:41:04;;;;;;;;;;;;;;;;;;5084140;28;20011;-79
2021/01/08 11:43:30;;;;;;;;;;;;;;;;;;5082428;28;19919;-77
2021/01/08 11:45:56;;;;;;;;;;;;;;;;;;5080369;28;20438;-79
2021/01/08 11:48:22;;;;;;;;;;;;;;;;;;5079894;28;20375;-80
2021/01/08 11:50:48;;;;;;;;;;;;;;;;;;5092923;28;19906;-79
2021/01/08 11:53:14;;;;;;;;;;;;;;;;;;5089019;28;19912;-80
2021/01/08 11:55:40;;;;;;;;;;;;;;;;;;5076569;28;19908;-78
2021/01/08 11:58:06;;;;;;;;;;;;;;;;;;5075824;28;19983;-80
2021/01/08 12:00:32;;;;;;;;;;;;;;;;;;5081302;28;19916;-80
2021/01/08 12:02:58;;;;;;;;;;;;;;;;;;5092828;28;19904;-79
2021/01/08 12:05:24;;;;;;;;;;;;;;;;;;5080550;28;19954;-80
2021/01/08 12:07:50;;;;;;;;;;;;;;;;;;5072384;28;19904;-79
2021/01/08 12:10:16;;;;;;;;;;;;;;;;;;5072558;28;20379;-79
2021/01/08 12:12:42;;;;;;;;;;;;;;;;;;5072584;28;19909;-79
2021/01/08 12:15:08;;;;;;;;;;;;;;;;;;5081501;28;19908;-79
2021/01/08 12:17:34;;;;;;;;;;;;;;;;;;5076369;28;20003;-79
2021/01/08 12:20:00;;;;;;;;;;;;;;;;;;5081412;28;20401;-79
2021/01/08 12:22:26;;;;;;;;;;;;;;;;;;5076821;28;19909;-80
2021/01/08 12:24:51;;;;;;;;;;;;;;;;;;5077547;28;19912;-80
2021/01/08 12:27:18;;;;;;;;;;;;;;;;;;5077747;28;19908;-78
2021/01/08 12:29:43;;;;;;;;;;;;;;;;;;5085553;28;20374;-80
2021/01/08 12:32:09;;;;;;;;;;;;;;;;;;5081489;28;19908;-80
2021/01/08 12:34:35;;;;;;;;;;;;;;;;;;5083679;28;19908;-73
2021/01/08 12:37:01;;;;;;;;;;;;;;;;;;5079778;28;20004;-80
2021/01/08 12:39:28;;;;;;;;;;;;;;;;;;5080421;28;19954;-79
2021/01/08 12:41:54;;;;;;;;;;;;;;;;;;5078318;28;20363;-80
2021/01/08 12:44:20;;;;;;;;;;;;;;;;;;5072173;28;19996;-80
2021/01/08 12:46:46;;;;;;;;;;;;;;;;;;5082946;28;19919;-80
2021/01/08 12:49:12;;;;;;;;;;;;;;;;;;5074975;28;19991;-80
2021/01/08 12:51:38;;;;;;;;;;;;;;;;;;5085561;28;19919;-80
2021/01/08 12:54:04;;;;;;;;;;;;;;;;;;5084983;28;19908;-79
2021/01/08 12:56:30;;;;;;;;;;;;;;;;;;5093618;28;19916;-79
2021/01/08 12:58:56;;;;;;;;;;;;;;;;;;5096199;28;19904;-81
2021/01/08 13:01:22;;;;;;;;;;;;;;;;;;5085435;28;19944;-80
2021/01/08 13:03:48;;;;;;;;;;;;;;;;;;5088794;28;19967;-79
2021/01/08 13:06:14;;;;;;;;;;;;;;;;;;5077197;28;20006;-78
2021/01/08 13:08:40;;;;;;;;;;;;;;;;;;5088843;28;20350;-77
2021/01/08 13:11:06;;;;;;;;;;;;;;;;;;5090527;28;20346;-80
2021/01/08 13:13:32;;;;;;;;;;;;;;;;;;5081273;28;19971;-80
2021/01/08 13:15:58;;;;;;;;;;;;;;;;;;5089952;28;19935;-81
2021/01/08 13:18:24;;;;;;;;;;;;;;;;;;5095665;28;20057;-80
2021/01/08 13:20:50;;;;;;;;;;;;;;;;;;5087807;28;19916;-79
2021/01/08 13:23:16;;;;;;;;;;;;;;;;;;5083351;28;20002;-79
2021/01/08 13:25:42;;;;;;;;;;;;;;;;;;5076797;28;20279;-78
2021/01/08 13:28:08;;;;;;;;;;;;;;;;;;5088849;28;19904;-78
2021/01/08 13:30:34;;;;;;;;;;;;;;;;;;5087444;28;19915;-78
2021/01/08 13:33:00;;;;;;;;;;;;;;;;;;5081269;28;19998;-78
2021/01/08 13:35:27;;;;;;;;;;;;;;;;;;5077300;28;20343;-78
2021/01/08 13:37:53;;;;;;;;;;;;;;;;;;5074491;28;19922;-78
2021/01/08 13:40:19;;;;;;;;;;;;;;;;;;5075243;28;19904;-79
2021/01/08 13:42:45;;;;;;;;;;;;;;;;;;5075044;28;19905;-78
2021/01/08 13:45:11;;;;;;;;;;;;;;;;;;5085443;28;19930;-78
2021/01/08 13:47:37;;;;;;;;;;;;;;;;;;5093896;28;20259;-78
2021/01/08 13:50:03;;;;;;;;;;;;;;;;;;5093670;28;19916;-78
2021/01/08 13:52:29;;;;;;;;;;;;;;;;;;5094945;28;19904;-79
2021/01/08 13:54:55;;;;;;;;;;;;;;;;;;5087755;28;19910;-78
2021/01/08 13:57:21;;;;;;;;;;;;;;;;;;5079605;28;19938;-80
2021/01/08 13:59:47;;;;;;;;;;;;;;;;;;5094484;28;19943;-78
2021/01/08 14:02:13;;;;;;;;;;;;;;;;;;5094625;28;19919;-78
2021/01/08 14:04:39;;;;;;;;;;;;;;;;;;5094584;28;20273;-77
2021/01/08 14:07:05;;;;;;;;;;;;;;;;;;5094307;28;19915;-77
2021/01/08 14:09:31;;;;;;;;;;;;;;;;;;5094773;28;20000;-76
2021/01/08 14:12:00;;;;;;;;;;;;;;;;;;5094771;28;19904;-77
2021/01/08 14:14:26;;;;;;;;;;;;;;;;;;5094274;28;20114;-78
2021/01/08 14:16:52;;;;;;;;;;;;;;;;;;5093703;28;20460;-77
2021/01/08 14:19:18;;;;;;;;;;;;;;;;;;5093933;28;20343;-77
2021/01/08 14:21:44;;;;;;;;;;;;;;;;;;5094095;28;19916;-77
2021/01/08 14:24:10;;;;;;;;;;;;;;;;;;5089121;28;19916;-77
2021/01/08 14:26:36;;;;;;;;;;;;;;;;;;5087963;28;20313;-77
2021/01/08 14:29:02;;;;;;;;;;;;;;;;;;5073396;28;19990;-77
2021/01/08 14:31:28;;;;;;;;;;;;;;;;;;5074078;28;19939;-77
2021/01/08 14:33:54;;;;;;;;;;;;;;;;;;5089460;28;19908;-77
2021/01/08 14:36:20;;;;;;;;;;;;;;;;;;5093777;28;19912;-77
2021/01/08 14:38:46;;;;;;;;;;;;;;;;;;5092956;28;19912;-77
2021/01/08 14:41:12;;;;;;;;;;;;;;;;;;5092548;28;19908;-77
2021/01/08 14:43:38;;;;;;;;;;;;;;;;;;5073609;28;19999;-77
2021/01/08 14:46:04;;;;;;;;;;;;;;;;;;5073619;28;19957;-77
2021/01/08 14:48:30;;;;;;;;;;;;;;;;;;5073725;28;19943;-77
2021/01/08 14:50:56;;;;;;;;;;;;;;;;;;5073389;28;19911;-77
2021/01/08 14:53:22;;;;;;;;;;;;;;;;;;5073472;28;19905;-77
2021/01/08 14:55:48;;;;;;;;;;;;;;;;;;5073711;28;19905;-76
2021/01/08 14:58:14;;;;;;;;;;;;;;;;;;5073139;28;19915;-78
2021/01/08 15:00:39;;;;;;;;;;;;;;;;;;5073700;28;19904;-76
2021/01/08 15:03:05;;;;;;;;;;;;;;;;;;5086907;28;19914;-76
2021/01/08 15:05:31;;;;;;;;;;;;;;;;;;5092857;28;19934;-76
2021/01/08 15:07:57;;;;;;;;;;;;;;;;;;5085855;28;20007;-77
2021/01/08 15:10:23;;;;;;;;;;;;;;;;;;5078948;28;19920;-78
2021/01/08 15:12:50;;;;;;;;;;;;;;;;;;5093263;28;19908;-77
2021/01/08 15:15:16;;;;;;;;;;;;;;;;;;5092949;28;20252;-77
2021/01/08 15:17:42;;;;;;;;;;;;;;;;;;5092635;28;19912;-77
2021/01/08 15:20:08;;;;;;;;;;;;;;;;;;5092880;28;19949;-77
2021/01/08 15:22:34;;;;;;;;;;;;;;;;;;5092085;28;20002;-78
2021/01/08 15:25:01;;;;;;;;;;;;;;;;;;5093414;28;19965;-77
2021/01/08 15:27:26;;;;;;;;;;;;;;;;;;5092550;28;19904;-77
2021/01/08 15:29:52;;;;;;;;;;;;;;;;;;5092951;28;20271;-77
2021/01/08 15:32:18;;;;;;;;;;;;;;;;;;5092996;28;19998;-78
2021/01/08 15:34:44;;;;;;;;;;;;;;;;;;5078839;28;19913;-77
2021/01/08 15:37:10;;;;;;;;;;;;;;;;;;5093147;28;19912;-76
2021/01/08 15:39:36;;;;;;;;;;;;;;;;;;5092662;28;19915;-77
2021/01/08 15:42:02;;;;;;;;;;;;;;;;;;5092631;28;19995;-77
2021/01/08 15:44:28;;;;;;;;;;;;;;;;;;5092902;28;19915;-77
2021/01/08 15:46:54;;;;;;;;;;;;;;;;;;5092996;28;19914;-77
2021/01/08 15:49:20;;;;;;;;;;;;;;;;;;5091734;28;19908;-77
2021/01/08 15:51:48;;;;;;;;;;;;;;;;;;5083683;28;19904;-77
2021/01/08 15:54:14;;;;;;;;;;;;;;;;;;5087018;28;20355;-76
2021/01/08 15:56:40;;;;;;;;;;;;;;;;;;5089738;28;19923;-77
2021/01/08 15:59:06;;;;;;;;;;;;;;;;;;5092819;28;20385;-77
2021/01/08 16:01:32;;;;;;;;;;;;;;;;;;5092723;28;20368;-77
2021/01/08 16:03:58;;;;;;;;;;;;;;;;;;5092177;28;19908;-76
2021/01/08 16:06:24;;;;;;;;;;;;;;;;;;5092721;28;20426;-77
2021/01/08 16:08:50;;;;;;;;;;;;;;;;;;5092103;28;20255;-77
2021/01/08 16:11:16;;;;;;;;;;;;;;;;;;5092023;28;19949;-77
2021/01/08 16:13:42;;;;;;;;;;;;;;;;;;5088141;28;19908;-77
2021/01/08 16:16:08;;;;;;;;;;;;;;;;;;5088336;28;20022;-74
2021/01/08 16:18:34;;;;;;;;;;;;;;;;;;5091751;28;20371;-77
2021/01/08 16:21:00;;;;;;;;;;;;;;;;;;5092367;28;19904;-77
2021/01/08 16:23:26;;;;;;;;;;;;;;;;;;5091991;28;20008;-77
2021/01/08 16:25:51;;;;;;;;;;;;;;;;;;5091899;28;19912;-78
2021/01/08 16:28:17;;;;;;;;;;;;;;;;;;5094313;28;20007;-77
2021/01/08 16:30:43;;;;;;;;;;;;;;;;;;5096144;28;19912;-78
2021/01/08 16:33:09;;;;;;;;;;;;;;;;;;5096298;28;19904;-77
2021/01/08 16:35:35;;;;;;;;;;;;;;;;;;5096206;28;19904;-78